Prizreni, Kosovo

01:31 PM CET on shkurt 14, 2016 (GMT +0100)
Tetovo | | Change Station
CLOSE
Current Station
Personal Weather Stations
Location: Tetovo, MK
Elevation: 1606 ft
Nearby Weather Stations

Elev 1606 ft 42.01 °N, 20.96 °E | Updated 2 minutes ago

Scattered Clouds
re te shperndara
60.4 °F
Feels Like 60.4 °F
N
0.0
Era e paqendrueshme Era from JJL
Gusts 0.0 mph

Sot
High -- | Low -- °F
--% Chance of Precip.
Yesterday
High -- | Low -- °F
Precip. -- ne
Presioni 29.65 ne
Visioni 6.2 milje
Clouds re te shperndara 8000 ft
Pika E Veses 49 °F
Lageshtira E ajrit 65%
Rainfall 0.00 ne
Snow Depth Not available.
6:35 AM 5:07 PM
Waxing Crescent, 41% visible
METAR LWSK 141200Z 31003KT 9999 SCT080 15/10 Q1004 NOSIG
Presioni 29.65 ne
Visioni 6.2 milje
Clouds re te shperndara 8000 ft
Pika E Veses 49 °F
Lageshtira E ajrit 65%
Rainfall 0.00 ne
Snow Depth Not available.
6:35 AM 5:07 PM
Waxing Crescent, 41% visible
METAR LWSK 141200Z 31003KT 9999 SCT080 15/10 Q1004 NOSIG

10-Day Weather Forecast

Almanac

Astronomy

Feb. 14, 2016 Rise Set
Actual Time
Civil Twilight
Nautical Twilight
Astronomical Twilight
Moon
Length Of Visible Light
Length of Day
Tomorrow will be .
, % of the Moon is Illuminated

Today's Extremes

Country Highs Country Lows

Community

WunderPhotos

Upload Photos

1,892,774 photos uploaded!

WunderBlog® & News

Nearby

Air Quality

  Air Quality AQ Index Pollutant
Not available.

Snow Depth

Station Depth Elevation

Earthquake Activity

City Distance Mag. Time & Date
Minimum magnitude displayed is 2.5.

Coastal Water Temperatures

Vend Temperatura

Stations

Nearby Weather Stations

Station Location Temp Ftohtesia E erses Pika E Veses Lageshtira E ajrit Era Precip. Elev te freskuara(Te Dhenat) Type